sensor_id;sensor_type;location;lat;lon;timestamp;P1;durP1;ratioP1;P2;durP2;ratioP2
73337;SDS011;61575;49.908;35.556;2023-07-13T00:02:29;2.78;;;1.20;;
73337;SDS011;61575;49.908;35.556;2023-07-13T00:05:31;3.17;;;1.30;;
73337;SDS011;61575;49.908;35.556;2023-07-13T00:08:34;3.13;;;1.10;;
73337;SDS011;61575;49.908;35.556;2023-07-13T00:11:36;2.65;;;1.10;;
73337;SDS011;61575;49.908;35.556;2023-07-13T00:14:38;2.53;;;1.13;;
73337;SDS011;61575;49.908;35.556;2023-07-13T00:17:40;1.95;;;0.93;;
73337;SDS011;61575;49.908;35.556;2023-07-13T00:20:42;2.08;;;1.00;;
73337;SDS011;61575;49.908;35.556;2023-07-13T00:23:45;3.17;;;1.15;;
73337;SDS011;61575;49.908;35.556;2023-07-13T00:26:47;2.25;;;1.00;;
73337;SDS011;61575;49.908;35.556;2023-07-13T00:29:48;3.20;;;1.10;;
73337;SDS011;61575;49.908;35.556;2023-07-13T00:32:52;2.63;;;1.10;;
73337;SDS011;61575;49.908;35.556;2023-07-13T00:36:09;2.42;;;1.15;;
73337;SDS011;61575;49.908;35.556;2023-07-13T00:39:12;2.20;;;1.20;;
73337;SDS011;61575;49.908;35.556;2023-07-13T00:42:14;2.05;;;0.90;;
73337;SDS011;61575;49.908;35.556;2023-07-13T00:48:20;2.80;;;1.10;;
73337;SDS011;61575;49.908;35.556;2023-07-13T00:51:28;2.88;;;1.20;;
73337;SDS011;61575;49.908;35.556;2023-07-13T00:54:39;2.67;;;1.20;;
73337;SDS011;61575;49.908;35.556;2023-07-13T00:57:43;2.30;;;1.10;;
73337;SDS011;61575;49.908;35.556;2023-07-13T01:00:46;3.63;;;1.50;;
73337;SDS011;61575;49.908;35.556;2023-07-13T01:03:49;2.00;;;1.00;;
73337;SDS011;61575;49.908;35.556;2023-07-13T01:06:52;1.70;;;1.00;;
73337;SDS011;61575;49.908;35.556;2023-07-13T01:09:55;2.28;;;0.98;;
73337;SDS011;61575;49.908;35.556;2023-07-13T01:12:57;3.07;;;1.30;;
73337;SDS011;61575;49.908;35.556;2023-07-13T01:16:02;2.70;;;1.20;;
73337;SDS011;61575;49.908;35.556;2023-07-13T01:22:26;3.35;;;1.08;;
73337;SDS011;61575;49.908;35.556;2023-07-13T01:25:31;2.00;;;1.17;;
73337;SDS011;61575;49.908;35.556;2023-07-13T01:28:33;2.03;;;1.02;;
73337;SDS011;61575;49.908;35.556;2023-07-13T01:31:42;2.58;;;1.20;;
73337;SDS011;61575;49.908;35.556;2023-07-13T01:34:46;2.00;;;1.00;;
73337;SDS011;61575;49.908;35.556;2023-07-13T01:37:49;3.47;;;1.20;;
73337;SDS011;61575;49.908;35.556;2023-07-13T01:40:52;2.22;;;1.05;;
73337;SDS011;61575;49.908;35.556;2023-07-13T01:43:54;1.80;;;0.95;;
73337;SDS011;61575;49.908;35.556;2023-07-13T01:46:57;1.92;;;0.90;;
73337;SDS011;61575;49.908;35.556;2023-07-13T01:49:59;2.00;;;0.98;;
73337;SDS011;61575;49.908;35.556;2023-07-13T01:53:01;2.38;;;1.20;;
73337;SDS011;61575;49.908;35.556;2023-07-13T01:56:04;2.85;;;1.00;;
73337;SDS011;61575;49.908;35.556;2023-07-13T01:59:06;2.97;;;1.20;;
73337;SDS011;61575;49.908;35.556;2023-07-13T02:02:08;3.63;;;1.50;;
73337;SDS011;61575;49.908;35.556;2023-07-13T02:05:11;1.83;;;0.93;;
73337;SDS011;61575;49.908;35.556;2023-07-13T02:08:15;3.13;;;1.10;;
73337;SDS011;61575;49.908;35.556;2023-07-13T02:11:17;2.20;;;1.23;;
73337;SDS011;61575;49.908;35.556;2023-07-13T02:14:19;2.30;;;1.20;;
73337;SDS011;61575;49.908;35.556;2023-07-13T02:17:21;2.67;;;1.30;;
73337;SDS011;61575;49.908;35.556;2023-07-13T02:20:23;3.05;;;1.20;;
73337;SDS011;61575;49.908;35.556;2023-07-13T02:26:27;2.90;;;1.17;;
73337;SDS011;61575;49.908;35.556;2023-07-13T02:29:29;4.03;;;1.30;;
73337;SDS011;61575;49.908;35.556;2023-07-13T02:32:31;2.50;;;1.10;;
73337;SDS011;61575;49.908;35.556;2023-07-13T02:35:33;3.10;;;1.20;;
73337;SDS011;61575;49.908;35.556;2023-07-13T02:38:35;2.80;;;1.15;;
73337;SDS011;61575;49.908;35.556;2023-07-13T02:41:38;2.70;;;1.30;;
73337;SDS011;61575;49.908;35.556;2023-07-13T02:44:40;2.60;;;1.20;;
73337;SDS011;61575;49.908;35.556;2023-07-13T02:47:42;1.70;;;0.95;;
73337;SDS011;61575;49.908;35.556;2023-07-13T02:50:45;3.05;;;1.33;;
73337;SDS011;61575;49.908;35.556;2023-07-13T02:53:47;2.40;;;1.17;;
73337;SDS011;61575;49.908;35.556;2023-07-13T02:56:49;2.53;;;1.17;;
73337;SDS011;61575;49.908;35.556;2023-07-13T02:59:51;2.95;;;1.30;;
73337;SDS011;61575;49.908;35.556;2023-07-13T03:02:53;3.45;;;1.20;;
73337;SDS011;61575;49.908;35.556;2023-07-13T03:06:00;2.45;;;1.25;;
73337;SDS011;61575;49.908;35.556;2023-07-13T03:09:10;2.67;;;1.30;;
73337;SDS011;61575;49.908;35.556;2023-07-13T03:12:17;2.88;;;1.30;;
73337;SDS011;61575;49.908;35.556;2023-07-13T03:15:19;2.30;;;1.15;;
73337;SDS011;61575;49.908;35.556;2023-07-13T03:18:23;2.53;;;1.20;;
73337;SDS011;61575;49.908;35.556;2023-07-13T03:21:27;2.72;;;1.30;;
73337;SDS011;61575;49.908;35.556;2023-07-13T03:24:29;2.63;;;1.50;;
73337;SDS011;61575;49.908;35.556;2023-07-13T03:27:32;3.85;;;1.50;;
73337;SDS011;61575;49.908;35.556;2023-07-13T03:30:34;2.83;;;1.40;;
73337;SDS011;61575;49.908;35.556;2023-07-13T03:33:36;2.80;;;1.30;;
73337;SDS011;61575;49.908;35.556;2023-07-13T03:36:39;4.93;;;1.52;;
73337;SDS011;61575;49.908;35.556;2023-07-13T03:39:44;3.90;;;1.50;;
73337;SDS011;61575;49.908;35.556;2023-07-13T03:42:47;2.53;;;1.40;;
73337;SDS011;61575;49.908;35.556;2023-07-13T03:45:52;5.47;;;1.50;;
73337;SDS011;61575;49.908;35.556;2023-07-13T03:48:54;3.03;;;1.60;;
73337;SDS011;61575;49.908;35.556;2023-07-13T03:51:56;3.17;;;1.52;;
73337;SDS011;61575;49.908;35.556;2023-07-13T03:54:59;3.50;;;1.67;;
73337;SDS011;61575;49.908;35.556;2023-07-13T04:01:26;2.58;;;1.40;;
73337;SDS011;61575;49.908;35.556;2023-07-13T04:04:29;3.33;;;1.73;;
73337;SDS011;61575;49.908;35.556;2023-07-13T04:07:32;4.68;;;2.10;;
73337;SDS011;61575;49.908;35.556;2023-07-13T04:10:34;4.40;;;2.08;;
73337;SDS011;61575;49.908;35.556;2023-07-13T04:13:36;4.05;;;1.77;;
73337;SDS011;61575;49.908;35.556;2023-07-13T04:16:38;3.70;;;1.85;;
73337;SDS011;61575;49.908;35.556;2023-07-13T04:19:40;3.90;;;2.03;;
73337;SDS011;61575;49.908;35.556;2023-07-13T04:22:42;4.28;;;2.08;;
73337;SDS011;61575;49.908;35.556;2023-07-13T04:25:44;4.32;;;1.92;;
73337;SDS011;61575;49.908;35.556;2023-07-13T04:28:47;3.63;;;2.00;;
73337;SDS011;61575;49.908;35.556;2023-07-13T04:31:50;3.85;;;1.88;;
73337;SDS011;61575;49.908;35.556;2023-07-13T04:34:52;4.55;;;2.15;;
73337;SDS011;61575;49.908;35.556;2023-07-13T04:37:57;2.67;;;1.50;;
73337;SDS011;61575;49.908;35.556;2023-07-13T04:41:00;3.72;;;1.95;;
73337;SDS011;61575;49.908;35.556;2023-07-13T04:44:04;4.30;;;2.17;;
73337;SDS011;61575;49.908;35.556;2023-07-13T04:47:06;4.00;;;2.10;;
73337;SDS011;61575;49.908;35.556;2023-07-13T04:50:08;3.80;;;1.92;;
73337;SDS011;61575;49.908;35.556;2023-07-13T04:53:12;4.10;;;2.08;;
73337;SDS011;61575;49.908;35.556;2023-07-13T04:56:14;3.20;;;1.70;;
73337;SDS011;61575;49.908;35.556;2023-07-13T04:59:16;4.28;;;2.08;;
73337;SDS011;61575;49.908;35.556;2023-07-13T05:02:20;3.58;;;2.00;;
73337;SDS011;61575;49.908;35.556;2023-07-13T05:05:26;3.55;;;1.67;;
73337;SDS011;61575;49.908;35.556;2023-07-13T05:08:29;3.97;;;1.40;;
73337;SDS011;61575;49.908;35.556;2023-07-13T05:11:31;3.03;;;1.50;;
73337;SDS011;61575;49.908;35.556;2023-07-13T05:14:32;3.28;;;1.45;;
73337;SDS011;61575;49.908;35.556;2023-07-13T05:17:34;6.15;;;1.45;;
73337;SDS011;61575;49.908;35.556;2023-07-13T05:20:36;3.00;;;1.48;;
73337;SDS011;61575;49.908;35.556;2023-07-13T05:23:39;2.65;;;1.50;;
73337;SDS011;61575;49.908;35.556;2023-07-13T05:26:43;3.58;;;1.52;;
73337;SDS011;61575;49.908;35.556;2023-07-13T05:29:45;3.00;;;1.40;;
73337;SDS011;61575;49.908;35.556;2023-07-13T05:32:47;2.72;;;1.45;;
73337;SDS011;61575;49.908;35.556;2023-07-13T05:35:49;2.83;;;1.40;;
73337;SDS011;61575;49.908;35.556;2023-07-13T05:38:52;3.00;;;1.45;;
73337;SDS011;61575;49.908;35.556;2023-07-13T05:41:54;2.88;;;1.35;;
73337;SDS011;61575;49.908;35.556;2023-07-13T05:44:56;3.08;;;1.50;;
73337;SDS011;61575;49.908;35.556;2023-07-13T05:47:58;2.92;;;1.30;;
73337;SDS011;61575;49.908;35.556;2023-07-13T05:51:01;3.13;;;1.50;;
73337;SDS011;61575;49.908;35.556;2023-07-13T05:54:03;2.75;;;1.40;;
73337;SDS011;61575;49.908;35.556;2023-07-13T05:57:05;3.15;;;1.77;;
73337;SDS011;61575;49.908;35.556;2023-07-13T06:00:07;3.15;;;1.60;;
73337;SDS011;61575;49.908;35.556;2023-07-13T06:03:12;2.25;;;1.20;;
73337;SDS011;61575;49.908;35.556;2023-07-13T06:06:15;4.05;;;1.63;;
73337;SDS011;61575;49.908;35.556;2023-07-13T06:09:18;3.50;;;1.40;;
73337;SDS011;61575;49.908;35.556;2023-07-13T06:12:20;2.72;;;1.48;;
73337;SDS011;61575;49.908;35.556;2023-07-13T06:15:21;3.22;;;1.48;;
73337;SDS011;61575;49.908;35.556;2023-07-13T06:18:23;3.63;;;1.50;;
73337;SDS011;61575;49.908;35.556;2023-07-13T06:21:25;2.92;;;1.50;;
73337;SDS011;61575;49.908;35.556;2023-07-13T06:24:27;2.83;;;1.40;;
73337;SDS011;61575;49.908;35.556;2023-07-13T06:27:29;2.63;;;1.58;;
73337;SDS011;61575;49.908;35.556;2023-07-13T06:30:31;3.63;;;1.85;;
73337;SDS011;61575;49.908;35.556;2023-07-13T06:33:33;3.80;;;1.80;;
73337;SDS011;61575;49.908;35.556;2023-07-13T06:36:35;3.70;;;1.50;;
73337;SDS011;61575;49.908;35.556;2023-07-13T06:42:39;4.47;;;1.63;;
73337;SDS011;61575;49.908;35.556;2023-07-13T06:45:43;2.55;;;1.30;;
73337;SDS011;61575;49.908;35.556;2023-07-13T06:48:51;3.03;;;1.30;;
73337;SDS011;61575;49.908;35.556;2023-07-13T06:51:53;3.20;;;1.50;;
73337;SDS011;61575;49.908;35.556;2023-07-13T06:54:55;2.95;;;1.50;;
73337;SDS011;61575;49.908;35.556;2023-07-13T07:00:59;3.40;;;1.70;;
73337;SDS011;61575;49.908;35.556;2023-07-13T07:07:03;2.20;;;1.13;;
73337;SDS011;61575;49.908;35.556;2023-07-13T07:10:05;3.40;;;1.40;;
73337;SDS011;61575;49.908;35.556;2023-07-13T07:13:08;2.28;;;1.10;;
73337;SDS011;61575;49.908;35.556;2023-07-13T07:16:10;2.10;;;1.10;;
73337;SDS011;61575;49.908;35.556;2023-07-13T07:19:12;2.05;;;1.05;;
73337;SDS011;61575;49.908;35.556;2023-07-13T07:25:16;2.42;;;1.13;;
73337;SDS011;61575;49.908;35.556;2023-07-13T07:31:23;2.30;;;1.20;;
73337;SDS011;61575;49.908;35.556;2023-07-13T07:34:27;2.00;;;1.13;;
73337;SDS011;61575;49.908;35.556;2023-07-13T07:37:29;2.70;;;1.10;;
73337;SDS011;61575;49.908;35.556;2023-07-13T07:40:38;2.25;;;1.17;;
73337;SDS011;61575;49.908;35.556;2023-07-13T07:43:44;2.30;;;1.20;;
73337;SDS011;61575;49.908;35.556;2023-07-13T07:49:48;2.08;;;1.13;;
73337;SDS011;61575;49.908;35.556;2023-07-13T07:52:51;2.03;;;1.05;;
73337;SDS011;61575;49.908;35.556;2023-07-13T07:55:53;2.38;;;1.00;;
73337;SDS011;61575;49.908;35.556;2023-07-13T07:58:58;2.95;;;1.00;;
73337;SDS011;61575;49.908;35.556;2023-07-13T08:02:03;1.98;;;1.05;;
73337;SDS011;61575;49.908;35.556;2023-07-13T08:05:08;3.20;;;1.33;;
73337;SDS011;61575;49.908;35.556;2023-07-13T08:08:13;2.28;;;1.10;;
73337;SDS011;61575;49.908;35.556;2023-07-13T08:11:15;3.13;;;1.23;;
73337;SDS011;61575;49.908;35.556;2023-07-13T08:14:20;3.22;;;1.20;;
73337;SDS011;61575;49.908;35.556;2023-07-13T08:17:23;2.45;;;1.30;;
73337;SDS011;61575;49.908;35.556;2023-07-13T08:20:25;1.95;;;1.05;;
73337;SDS011;61575;49.908;35.556;2023-07-13T08:23:27;3.10;;;1.13;;
73337;SDS011;61575;49.908;35.556;2023-07-13T08:26:32;2.13;;;1.05;;
73337;SDS011;61575;49.908;35.556;2023-07-13T08:29:34;1.95;;;0.98;;
73337;SDS011;61575;49.908;35.556;2023-07-13T08:32:35;2.20;;;1.20;;
73337;SDS011;61575;49.908;35.556;2023-07-13T08:35:38;2.45;;;1.10;;
73337;SDS011;61575;49.908;35.556;2023-07-13T08:41:42;2.13;;;1.02;;
73337;SDS011;61575;49.908;35.556;2023-07-13T08:51:35;2.55;;;1.23;;
73337;SDS011;61575;49.908;35.556;2023-07-13T08:54:47;2.42;;;1.35;;
73337;SDS011;61575;49.908;35.556;2023-07-13T08:57:54;2.28;;;1.20;;
73337;SDS011;61575;49.908;35.556;2023-07-13T09:01:15;2.75;;;1.20;;
73337;SDS011;61575;49.908;35.556;2023-07-13T09:04:28;2.33;;;1.20;;
73337;SDS011;61575;49.908;35.556;2023-07-13T09:11:01;2.17;;;1.10;;
73337;SDS011;61575;49.908;35.556;2023-07-13T09:17:27;2.38;;;1.40;;
73337;SDS011;61575;49.908;35.556;2023-07-13T09:20:35;2.17;;;1.17;;
73337;SDS011;61575;49.908;35.556;2023-07-13T09:23:43;2.47;;;1.23;;
73337;SDS011;61575;49.908;35.556;2023-07-13T09:26:45;1.92;;;1.10;;
73337;SDS011;61575;49.908;35.556;2023-07-13T09:29:58;1.95;;;1.17;;
73337;SDS011;61575;49.908;35.556;2023-07-13T09:33:10;2.30;;;1.10;;
73337;SDS011;61575;49.908;35.556;2023-07-13T09:39:35;2.95;;;1.17;;
73337;SDS011;61575;49.908;35.556;2023-07-13T09:42:40;2.53;;;1.13;;
73337;SDS011;61575;49.908;35.556;2023-07-13T09:45:45;2.17;;;1.10;;
73337;SDS011;61575;49.908;35.556;2023-07-13T09:48:49;2.97;;;1.20;;
73337;SDS011;61575;49.908;35.556;2023-07-13T09:51:57;2.45;;;1.40;;
73337;SDS011;61575;49.908;35.556;2023-07-13T09:55:02;2.88;;;1.40;;
73337;SDS011;61575;49.908;35.556;2023-07-13T09:58:05;2.47;;;1.38;;
73337;SDS011;61575;49.908;35.556;2023-07-13T10:01:15;2.35;;;1.20;;
73337;SDS011;61575;49.908;35.556;2023-07-13T10:04:18;2.22;;;1.10;;
73337;SDS011;61575;49.908;35.556;2023-07-13T10:07:22;2.45;;;1.20;;
73337;SDS011;61575;49.908;35.556;2023-07-13T10:10:30;2.13;;;1.10;;
73337;SDS011;61575;49.908;35.556;2023-07-13T10:13:36;3.40;;;1.70;;
73337;SDS011;61575;49.908;35.556;2023-07-13T10:16:44;5.03;;;1.60;;
73337;SDS011;61575;49.908;35.556;2023-07-13T10:19:48;3.13;;;1.40;;
73337;SDS011;61575;49.908;35.556;2023-07-13T10:23:00;3.33;;;1.40;;
73337;SDS011;61575;49.908;35.556;2023-07-13T10:26:08;3.33;;;1.63;;
73337;SDS011;61575;49.908;35.556;2023-07-13T10:29:17;3.47;;;1.90;;
73337;SDS011;61575;49.908;35.556;2023-07-13T10:32:22;4.72;;;2.40;;
73337;SDS011;61575;49.908;35.556;2023-07-13T10:35:26;5.18;;;2.60;;
73337;SDS011;61575;49.908;35.556;2023-07-13T10:38:31;4.60;;;2.10;;
73337;SDS011;61575;49.908;35.556;2023-07-13T10:41:35;4.07;;;2.25;;
73337;SDS011;61575;49.908;35.556;2023-07-13T10:44:41;3.97;;;2.03;;
73337;SDS011;61575;49.908;35.556;2023-07-13T10:47:44;3.17;;;1.92;;
73337;SDS011;61575;49.908;35.556;2023-07-13T10:50:48;3.92;;;1.85;;
73337;SDS011;61575;49.908;35.556;2023-07-13T10:54:16;3.30;;;1.38;;
73337;SDS011;61575;49.908;35.556;2023-07-13T10:57:22;4.75;;;1.60;;
73337;SDS011;61575;49.908;35.556;2023-07-13T11:00:24;2.95;;;1.70;;
73337;SDS011;61575;49.908;35.556;2023-07-13T11:03:27;2.35;;;1.40;;
73337;SDS011;61575;49.908;35.556;2023-07-13T11:06:37;2.58;;;1.30;;
73337;SDS011;61575;49.908;35.556;2023-07-13T11:09:42;2.85;;;1.52;;
73337;SDS011;61575;49.908;35.556;2023-07-13T11:12:53;3.10;;;1.50;;
73337;SDS011;61575;49.908;35.556;2023-07-13T11:15:55;5.72;;;2.80;;
73337;SDS011;61575;49.908;35.556;2023-07-13T11:28:35;5.40;;;3.22;;
73337;SDS011;61575;49.908;35.556;2023-07-13T11:31:39;6.85;;;4.28;;
73337;SDS011;61575;49.908;35.556;2023-07-13T11:34:41;5.03;;;3.33;;
73337;SDS011;61575;49.908;35.556;2023-07-13T11:37:44;9.25;;;4.85;;
73337;SDS011;61575;49.908;35.556;2023-07-13T11:40:47;5.82;;;3.10;;
73337;SDS011;61575;49.908;35.556;2023-07-13T11:47:18;6.43;;;2.85;;
73337;SDS011;61575;49.908;35.556;2023-07-13T11:50:23;4.80;;;2.60;;
73337;SDS011;61575;49.908;35.556;2023-07-13T11:53:27;4.15;;;2.40;;
73337;SDS011;61575;49.908;35.556;2023-07-13T11:56:31;7.78;;;4.22;;
73337;SDS011;61575;49.908;35.556;2023-07-13T11:59:36;5.72;;;3.13;;
73337;SDS011;61575;49.908;35.556;2023-07-13T12:02:42;3.25;;;1.90;;
73337;SDS011;61575;49.908;35.556;2023-07-13T12:06:00;4.15;;;2.05;;
73337;SDS011;61575;49.908;35.556;2023-07-13T12:09:13;3.28;;;1.88;;
73337;SDS011;61575;49.908;35.556;2023-07-13T12:12:21;4.05;;;2.00;;
73337;SDS011;61575;49.908;35.556;2023-07-13T12:15:27;3.55;;;1.75;;
73337;SDS011;61575;49.908;35.556;2023-07-13T12:18:37;3.60;;;1.90;;
73337;SDS011;61575;49.908;35.556;2023-07-13T12:21:41;3.55;;;2.00;;
73337;SDS011;61575;49.908;35.556;2023-07-13T12:24:43;3.75;;;1.70;;
73337;SDS011;61575;49.908;35.556;2023-07-13T12:27:50;4.57;;;1.90;;
73337;SDS011;61575;49.908;35.556;2023-07-13T12:30:53;3.53;;;1.73;;
73337;SDS011;61575;49.908;35.556;2023-07-13T12:34:02;3.42;;;1.88;;
73337;SDS011;61575;49.908;35.556;2023-07-13T12:37:08;4.15;;;1.60;;
73337;SDS011;61575;49.908;35.556;2023-07-13T12:40:17;4.00;;;1.92;;
73337;SDS011;61575;49.908;35.556;2023-07-13T12:43:21;2.67;;;1.50;;
73337;SDS011;61575;49.908;35.556;2023-07-13T12:46:24;4.38;;;1.80;;
73337;SDS011;61575;49.908;35.556;2023-07-13T12:49:31;4.28;;;1.73;;
73337;SDS011;61575;49.908;35.556;2023-07-13T12:52:36;3.97;;;1.73;;
73337;SDS011;61575;49.908;35.556;2023-07-13T12:55:49;2.67;;;1.50;;
73337;SDS011;61575;49.908;35.556;2023-07-13T12:59:03;2.47;;;1.40;;
73337;SDS011;61575;49.908;35.556;2023-07-13T13:02:20;3.65;;;1.60;;
73337;SDS011;61575;49.908;35.556;2023-07-13T13:05:35;3.05;;;1.70;;
73337;SDS011;61575;49.908;35.556;2023-07-13T13:08:39;3.35;;;1.40;;
73337;SDS011;61575;49.908;35.556;2023-07-13T13:11:43;2.85;;;1.60;;
73337;SDS011;61575;49.908;35.556;2023-07-13T13:14:45;3.08;;;1.67;;
73337;SDS011;61575;49.908;35.556;2023-07-13T13:17:47;2.90;;;1.50;;
73337;SDS011;61575;49.908;35.556;2023-07-13T13:20:50;3.25;;;1.67;;
73337;SDS011;61575;49.908;35.556;2023-07-13T13:23:52;2.20;;;1.42;;
73337;SDS011;61575;49.908;35.556;2023-07-13T13:26:54;3.10;;;1.52;;
73337;SDS011;61575;49.908;35.556;2023-07-13T13:29:59;3.20;;;1.73;;
73337;SDS011;61575;49.908;35.556;2023-07-13T13:33:01;3.03;;;1.60;;
73337;SDS011;61575;49.908;35.556;2023-07-13T13:36:03;5.57;;;1.90;;
73337;SDS011;61575;49.908;35.556;2023-07-13T13:42:38;2.95;;;1.52;;
73337;SDS011;61575;49.908;35.556;2023-07-13T13:45:41;2.30;;;1.30;;
73337;SDS011;61575;49.908;35.556;2023-07-13T13:48:43;3.10;;;1.70;;
73337;SDS011;61575;49.908;35.556;2023-07-13T13:51:45;3.50;;;1.70;;
73337;SDS011;61575;49.908;35.556;2023-07-13T13:54:47;2.95;;;1.60;;
73337;SDS011;61575;49.908;35.556;2023-07-13T13:57:49;3.35;;;1.60;;
73337;SDS011;61575;49.908;35.556;2023-07-13T14:00:51;2.95;;;1.63;;
73337;SDS011;61575;49.908;35.556;2023-07-13T14:03:54;2.83;;;1.40;;
73337;SDS011;61575;49.908;35.556;2023-07-13T14:06:56;2.83;;;1.65;;
73337;SDS011;61575;49.908;35.556;2023-07-13T14:09:58;2.92;;;1.70;;
73337;SDS011;61575;49.908;35.556;2023-07-13T14:13:01;2.78;;;1.40;;
73337;SDS011;61575;49.908;35.556;2023-07-13T14:16:07;4.55;;;1.60;;
73337;SDS011;61575;49.908;35.556;2023-07-13T14:19:14;3.83;;;1.60;;
73337;SDS011;61575;49.908;35.556;2023-07-13T14:22:19;4.53;;;1.77;;
73337;SDS011;61575;49.908;35.556;2023-07-13T14:25:25;2.80;;;1.45;;
73337;SDS011;61575;49.908;35.556;2023-07-13T14:28:27;3.50;;;1.73;;
73337;SDS011;61575;49.908;35.556;2023-07-13T14:31:30;3.05;;;1.60;;
73337;SDS011;61575;49.908;35.556;2023-07-13T14:34:32;3.70;;;1.70;;
73337;SDS011;61575;49.908;35.556;2023-07-13T14:37:34;3.20;;;1.60;;
73337;SDS011;61575;49.908;35.556;2023-07-13T14:40:37;4.18;;;2.20;;
73337;SDS011;61575;49.908;35.556;2023-07-13T14:43:42;3.47;;;1.95;;
73337;SDS011;61575;49.908;35.556;2023-07-13T14:46:44;3.90;;;1.65;;
73337;SDS011;61575;49.908;35.556;2023-07-13T14:49:48;2.88;;;1.70;;
73337;SDS011;61575;49.908;35.556;2023-07-13T14:52:50;4.10;;;2.05;;
73337;SDS011;61575;49.908;35.556;2023-07-13T14:55:52;2.97;;;1.80;;
73337;SDS011;61575;49.908;35.556;2023-07-13T14:58:54;3.22;;;1.77;;
73337;SDS011;61575;49.908;35.556;2023-07-13T15:01:56;3.65;;;1.85;;
73337;SDS011;61575;49.908;35.556;2023-07-13T15:04:58;3.25;;;1.90;;
73337;SDS011;61575;49.908;35.556;2023-07-13T15:08:02;4.20;;;2.00;;
73337;SDS011;61575;49.908;35.556;2023-07-13T15:11:04;2.70;;;1.52;;
73337;SDS011;61575;49.908;35.556;2023-07-13T15:14:06;3.88;;;1.90;;
73337;SDS011;61575;49.908;35.556;2023-07-13T15:17:31;2.97;;;1.88;;
73337;SDS011;61575;49.908;35.556;2023-07-13T15:20:38;2.78;;;1.50;;
73337;SDS011;61575;49.908;35.556;2023-07-13T15:23:40;3.25;;;1.85;;
73337;SDS011;61575;49.908;35.556;2023-07-13T15:26:42;3.78;;;1.70;;
73337;SDS011;61575;49.908;35.556;2023-07-13T15:29:50;3.17;;;1.80;;
73337;SDS011;61575;49.908;35.556;2023-07-13T15:32:53;3.50;;;2.00;;
73337;SDS011;61575;49.908;35.556;2023-07-13T15:35:56;2.90;;;1.60;;
73337;SDS011;61575;49.908;35.556;2023-07-13T15:39:00;2.95;;;1.70;;
73337;SDS011;61575;49.908;35.556;2023-07-13T15:42:02;5.10;;;2.00;;
73337;SDS011;61575;49.908;35.556;2023-07-13T15:45:04;3.97;;;1.92;;
73337;SDS011;61575;49.908;35.556;2023-07-13T15:48:17;3.63;;;1.73;;
73337;SDS011;61575;49.908;35.556;2023-07-13T15:51:27;4.95;;;1.70;;
73337;SDS011;61575;49.908;35.556;2023-07-13T15:54:31;3.25;;;1.80;;
73337;SDS011;61575;49.908;35.556;2023-07-13T15:57:34;4.70;;;2.00;;
73337;SDS011;61575;49.908;35.556;2023-07-13T16:00:37;4.22;;;2.20;;
73337;SDS011;61575;49.908;35.556;2023-07-13T16:03:42;4.13;;;2.15;;
73337;SDS011;61575;49.908;35.556;2023-07-13T16:06:44;4.05;;;1.98;;
73337;SDS011;61575;49.908;35.556;2023-07-13T16:09:47;4.00;;;1.90;;
73337;SDS011;61575;49.908;35.556;2023-07-13T16:12:51;3.72;;;1.80;;
73337;SDS011;61575;49.908;35.556;2023-07-13T16:15:53;3.65;;;1.88;;
73337;SDS011;61575;49.908;35.556;2023-07-13T16:18:59;2.80;;;1.80;;
73337;SDS011;61575;49.908;35.556;2023-07-13T16:22:03;4.07;;;2.00;;
73337;SDS011;61575;49.908;35.556;2023-07-13T16:25:17;3.00;;;1.67;;
73337;SDS011;61575;49.908;35.556;2023-07-13T16:28:22;3.60;;;1.80;;
73337;SDS011;61575;49.908;35.556;2023-07-13T16:31:24;3.38;;;1.90;;
73337;SDS011;61575;49.908;35.556;2023-07-13T16:34:26;3.80;;;1.85;;
73337;SDS011;61575;49.908;35.556;2023-07-13T16:37:29;3.20;;;1.90;;
73337;SDS011;61575;49.908;35.556;2023-07-13T16:40:33;3.35;;;1.90;;
73337;SDS011;61575;49.908;35.556;2023-07-13T16:43:36;4.15;;;1.85;;
73337;SDS011;61575;49.908;35.556;2023-07-13T16:46:41;3.30;;;1.80;;
73337;SDS011;61575;49.908;35.556;2023-07-13T16:49:44;4.60;;;1.90;;
73337;SDS011;61575;49.908;35.556;2023-07-13T16:52:48;3.28;;;1.80;;
73337;SDS011;61575;49.908;35.556;2023-07-13T16:55:51;3.63;;;1.90;;
73337;SDS011;61575;49.908;35.556;2023-07-13T16:58:57;3.20;;;1.83;;
73337;SDS011;61575;49.908;35.556;2023-07-13T17:05:03;4.80;;;1.80;;
73337;SDS011;61575;49.908;35.556;2023-07-13T17:08:14;3.30;;;1.80;;
73337;SDS011;61575;49.908;35.556;2023-07-13T17:11:17;4.50;;;1.80;;
73337;SDS011;61575;49.908;35.556;2023-07-13T17:17:26;3.78;;;1.90;;
73337;SDS011;61575;49.908;35.556;2023-07-13T17:20:34;3.58;;;1.70;;
73337;SDS011;61575;49.908;35.556;2023-07-13T17:23:38;3.60;;;1.90;;
73337;SDS011;61575;49.908;35.556;2023-07-13T17:26:41;3.88;;;1.92;;
73337;SDS011;61575;49.908;35.556;2023-07-13T17:29:44;7.88;;;4.10;;
73337;SDS011;61575;49.908;35.556;2023-07-13T17:32:50;35.00;;;21.17;;
73337;SDS011;61575;49.908;35.556;2023-07-13T17:35:53;30.92;;;20.48;;
73337;SDS011;61575;49.908;35.556;2023-07-13T17:38:56;23.17;;;14.15;;
73337;SDS011;61575;49.908;35.556;2023-07-13T17:45:00;14.73;;;8.10;;
73337;SDS011;61575;49.908;35.556;2023-07-13T17:48:02;12.85;;;6.78;;
73337;SDS011;61575;49.908;35.556;2023-07-13T17:51:09;10.00;;;4.65;;
73337;SDS011;61575;49.908;35.556;2023-07-13T17:54:12;6.20;;;3.58;;
73337;SDS011;61575;49.908;35.556;2023-07-13T17:57:15;6.85;;;3.83;;
73337;SDS011;61575;49.908;35.556;2023-07-13T18:00:17;5.22;;;2.92;;
73337;SDS011;61575;49.908;35.556;2023-07-13T18:03:33;6.70;;;3.03;;
73337;SDS011;61575;49.908;35.556;2023-07-13T18:06:46;5.40;;;2.90;;
73337;SDS011;61575;49.908;35.556;2023-07-13T18:09:54;7.80;;;2.72;;
73337;SDS011;61575;49.908;35.556;2023-07-13T18:12:56;10.48;;;3.10;;
73337;SDS011;61575;49.908;35.556;2023-07-13T18:15:58;10.32;;;2.85;;
73337;SDS011;61575;49.908;35.556;2023-07-13T18:19:01;5.97;;;2.97;;
73337;SDS011;61575;49.908;35.556;2023-07-13T18:22:10;11.50;;;3.20;;
73337;SDS011;61575;49.908;35.556;2023-07-13T18:25:14;5.80;;;2.70;;
73337;SDS011;61575;49.908;35.556;2023-07-13T18:28:20;5.20;;;2.72;;
73337;SDS011;61575;49.908;35.556;2023-07-13T18:31:23;5.80;;;3.15;;
73337;SDS011;61575;49.908;35.556;2023-07-13T18:34:35;6.82;;;2.90;;
73337;SDS011;61575;49.908;35.556;2023-07-13T18:37:40;5.38;;;2.60;;
73337;SDS011;61575;49.908;35.556;2023-07-13T18:43:44;6.32;;;3.10;;
73337;SDS011;61575;49.908;35.556;2023-07-13T18:46:55;5.72;;;2.20;;
73337;SDS011;61575;49.908;35.556;2023-07-13T18:49:57;4.13;;;2.30;;
73337;SDS011;61575;49.908;35.556;2023-07-13T18:53:00;5.18;;;2.42;;
73337;SDS011;61575;49.908;35.556;2023-07-13T18:56:02;4.50;;;2.35;;
73337;SDS011;61575;49.908;35.556;2023-07-13T19:02:13;5.07;;;2.53;;
73337;SDS011;61575;49.908;35.556;2023-07-13T19:05:18;5.47;;;2.60;;
73337;SDS011;61575;49.908;35.556;2023-07-13T19:08:22;5.15;;;2.22;;
73337;SDS011;61575;49.908;35.556;2023-07-13T19:14:26;4.32;;;2.50;;
73337;SDS011;61575;49.908;35.556;2023-07-13T19:17:28;6.00;;;2.65;;
73337;SDS011;61575;49.908;35.556;2023-07-13T19:23:33;4.37;;;2.63;;
73337;SDS011;61575;49.908;35.556;2023-07-13T19:26:38;5.30;;;2.33;;
73337;SDS011;61575;49.908;35.556;2023-07-13T19:32:43;4.53;;;2.38;;
73337;SDS011;61575;49.908;35.556;2023-07-13T19:35:46;3.97;;;2.17;;
73337;SDS011;61575;49.908;35.556;2023-07-13T19:38:49;4.18;;;2.30;;
73337;SDS011;61575;49.908;35.556;2023-07-13T19:41:58;4.90;;;2.50;;
73337;SDS011;61575;49.908;35.556;2023-07-13T19:45:07;4.63;;;2.70;;